createdAt,value
2022-10-08T00:00:09.810Z,0.00
2022-10-08T00:01:09.794Z,0.00
2022-10-08T00:02:09.823Z,0.00
2022-10-08T00:03:09.743Z,0.00
2022-10-08T00:04:09.779Z,0.00
2022-10-08T00:05:09.738Z,0.00
2022-10-08T00:06:09.686Z,0.00
2022-10-08T00:07:09.660Z,0.00
2022-10-08T00:08:09.639Z,0.00
2022-10-08T00:09:09.620Z,0.00
2022-10-08T00:10:09.602Z,0.00
2022-10-08T00:11:09.576Z,0.00
2022-10-08T00:12:09.558Z,0.00
2022-10-08T00:13:09.539Z,0.00
2022-10-08T00:14:09.528Z,0.00
2022-10-08T00:15:09.498Z,0.00
2022-10-08T00:16:09.488Z,0.00
2022-10-08T00:17:09.449Z,0.00
2022-10-08T00:18:09.427Z,0.00
2022-10-08T00:19:09.405Z,0.00
2022-10-08T00:20:09.390Z,0.00
2022-10-08T00:21:09.367Z,0.00
2022-10-08T00:22:09.358Z,0.00
2022-10-08T00:23:09.325Z,0.00
2022-10-08T00:24:09.306Z,0.00
2022-10-08T00:25:09.281Z,0.00
2022-10-08T00:26:09.341Z,0.00
2022-10-08T00:27:09.238Z,0.00
2022-10-08T00:28:09.231Z,0.00
2022-10-08T00:29:09.198Z,0.00
2022-10-08T00:30:09.172Z,0.00
2022-10-08T00:31:09.222Z,0.00
2022-10-08T00:32:09.142Z,0.00
2022-10-08T00:33:09.141Z,0.00
2022-10-08T00:34:09.087Z,0.00
2022-10-08T00:35:09.100Z,0.00
2022-10-08T00:36:09.072Z,0.00
2022-10-08T00:37:09.032Z,0.00
2022-10-08T00:38:09.037Z,0.00
2022-10-08T00:39:09.024Z,0.00
2022-10-08T00:40:08.985Z,0.00
2022-10-08T00:41:09.031Z,0.00
2022-10-08T00:42:09.026Z,0.00
2022-10-08T00:43:08.898Z,0.00
2022-10-08T00:44:08.880Z,0.00
2022-10-08T00:45:08.857Z,0.00
2022-10-08T00:46:08.942Z,0.00
2022-10-08T00:47:08.827Z,0.00
2022-10-08T00:48:08.794Z,0.00
2022-10-08T00:49:08.778Z,0.00
2022-10-08T00:50:08.759Z,0.00
2022-10-08T00:51:08.733Z,0.00
2022-10-08T00:52:08.739Z,0.00
2022-10-08T00:53:08.698Z,0.00
2022-10-08T00:54:08.671Z,0.00
2022-10-08T00:55:08.652Z,0.00
2022-10-08T00:56:08.630Z,0.00
2022-10-08T00:57:08.703Z,0.00
2022-10-08T00:58:08.586Z,0.00
2022-10-08T00:59:08.565Z,0.00
2022-10-08T01:00:08.541Z,0.00
2022-10-08T01:01:08.622Z,0.00
2022-10-08T01:02:08.696Z,0.00
2022-10-08T01:03:08.484Z,0.00
2022-10-08T01:04:08.455Z,0.00
2022-10-08T01:05:08.438Z,0.00
2022-10-08T01:06:08.425Z,0.00
2022-10-08T01:07:08.397Z,0.00
2022-10-08T01:08:08.378Z,0.00
2022-10-08T01:09:08.354Z,0.00
2022-10-08T01:10:08.337Z,0.00
2022-10-08T01:11:08.311Z,0.00
2022-10-08T01:12:08.414Z,0.00
2022-10-08T01:13:08.266Z,0.00
2022-10-08T01:14:08.248Z,0.00
2022-10-08T01:15:08.234Z,0.00
2022-10-08T01:16:08.277Z,0.00
2022-10-08T01:17:08.187Z,0.00
2022-10-08T01:18:08.163Z,0.00
2022-10-08T01:19:08.154Z,0.00
2022-10-08T01:20:08.124Z,0.00
2022-10-08T01:21:08.110Z,0.00
2022-10-08T01:22:08.083Z,0.00
2022-10-08T01:23:08.058Z,0.00
2022-10-08T01:24:08.039Z,0.00
2022-10-08T01:25:08.023Z,0.00
2022-10-08T01:26:08.009Z,0.00
2022-10-08T01:27:07.978Z,0.00
2022-10-08T01:28:08.009Z,0.00
2022-10-08T01:29:07.936Z,0.00
2022-10-08T01:30:07.915Z,0.00
2022-10-08T01:31:07.938Z,0.00
2022-10-08T01:32:07.878Z,0.00
2022-10-08T01:33:07.851Z,0.00
2022-10-08T01:34:07.832Z,0.00
2022-10-08T01:35:07.820Z,0.00
2022-10-08T01:36:07.809Z,0.00
2022-10-08T01:37:07.770Z,0.00
2022-10-08T01:38:07.742Z,0.00
2022-10-08T01:39:07.728Z,0.00
2022-10-08T01:40:07.705Z,0.00
2022-10-08T01:41:07.690Z,0.00
2022-10-08T01:42:07.662Z,0.00
2022-10-08T01:43:07.641Z,0.00
2022-10-08T01:44:07.623Z,0.00
2022-10-08T01:45:07.602Z,0.00
2022-10-08T01:46:07.657Z,0.00
2022-10-08T01:47:07.561Z,0.00
2022-10-08T01:48:07.546Z,0.00
2022-10-08T01:49:07.527Z,0.00
2022-10-08T01:50:07.494Z,0.00
2022-10-08T01:51:07.488Z,0.00
2022-10-08T01:52:07.459Z,0.00
2022-10-08T01:53:07.437Z,0.00
2022-10-08T01:54:07.408Z,0.00
2022-10-08T01:55:07.395Z,0.00
2022-10-08T01:56:07.371Z,0.00
2022-10-08T01:57:07.349Z,0.00
2022-10-08T01:58:07.336Z,0.00
2022-10-08T01:59:07.316Z,0.00
2022-10-08T02:00:07.303Z,0.00
2022-10-08T02:01:07.303Z,0.00
2022-10-08T02:02:07.313Z,0.00
2022-10-08T02:03:07.247Z,0.00
2022-10-08T02:04:07.206Z,0.00
2022-10-08T02:05:07.194Z,0.00
2022-10-08T02:06:07.166Z,0.00
2022-10-08T02:07:07.141Z,0.00
2022-10-08T02:08:07.130Z,0.00
2022-10-08T02:09:07.103Z,0.00
2022-10-08T02:10:07.085Z,0.00
2022-10-08T02:11:07.061Z,0.00
2022-10-08T02:12:07.046Z,0.00
2022-10-08T02:13:07.039Z,0.00
2022-10-08T02:14:07.027Z,0.00
2022-10-08T02:15:06.975Z,0.00
2022-10-08T02:16:07.031Z,0.00
2022-10-08T02:17:06.943Z,0.00
2022-10-08T02:18:06.911Z,0.00
2022-10-08T02:19:06.895Z,0.00
2022-10-08T02:20:06.871Z,0.00
2022-10-08T02:21:06.849Z,0.00
2022-10-08T02:22:06.835Z,0.00
2022-10-08T02:23:06.816Z,0.00
2022-10-08T02:24:06.790Z,0.00
2022-10-08T02:25:06.771Z,0.00
2022-10-08T02:26:06.749Z,0.00
2022-10-08T02:27:06.740Z,0.00
2022-10-08T02:28:06.767Z,0.00
2022-10-08T02:29:06.684Z,0.00
2022-10-08T02:30:06.664Z,0.00
2022-10-08T02:31:06.641Z,0.00
2022-10-08T02:32:06.691Z,0.00
2022-10-08T02:33:06.602Z,0.00
2022-10-08T02:34:06.582Z,0.00
2022-10-08T02:35:06.561Z,0.00
2022-10-08T02:36:06.538Z,0.00
2022-10-08T02:37:06.520Z,0.00
2022-10-08T02:38:06.499Z,0.00
2022-10-08T02:39:06.477Z,0.00
2022-10-08T02:40:06.456Z,0.00
2022-10-08T02:41:06.440Z,0.00
2022-10-08T02:42:06.410Z,0.00
2022-10-08T02:43:06.403Z,0.00
2022-10-08T02:44:06.386Z,0.00
2022-10-08T02:45:06.349Z,0.00
2022-10-08T02:46:06.416Z,0.00
2022-10-08T02:47:06.321Z,0.00
2022-10-08T02:48:06.287Z,0.00
2022-10-08T02:49:06.266Z,0.00
2022-10-08T02:50:06.242Z,0.00
2022-10-08T02:51:06.228Z,0.00
2022-10-08T02:52:06.204Z,0.00
2022-10-08T02:53:06.182Z,0.00
2022-10-08T02:54:06.161Z,0.00
2022-10-08T02:55:06.140Z,0.00
2022-10-08T02:56:06.121Z,0.00
2022-10-08T02:57:09.504Z,0.00
2022-10-08T02:58:06.079Z,0.00
2022-10-08T02:59:06.056Z,0.00
2022-10-08T03:00:06.038Z,0.00
2022-10-08T03:01:06.085Z,0.00
2022-10-08T03:02:06.120Z,0.00
2022-10-08T03:03:05.977Z,0.00
2022-10-08T03:04:05.959Z,0.00
2022-10-08T03:05:05.937Z,0.00
2022-10-08T03:06:05.910Z,0.00
2022-10-08T03:07:05.895Z,0.00
2022-10-08T03:08:05.869Z,0.00
2022-10-08T03:09:05.845Z,0.00
2022-10-08T03:10:05.854Z,0.00
2022-10-08T03:11:05.805Z,0.00
2022-10-08T03:12:05.792Z,0.00
2022-10-08T03:13:05.762Z,0.00
2022-10-08T03:14:05.745Z,0.00
2022-10-08T03:15:05.725Z,0.00
2022-10-08T03:16:05.703Z,0.00
2022-10-08T03:17:05.682Z,0.00
2022-10-08T03:18:05.660Z,0.00
2022-10-08T03:19:05.652Z,0.00
2022-10-08T03:20:05.617Z,0.00
2022-10-08T03:21:05.601Z,0.00
2022-10-08T03:22:05.579Z,0.00
2022-10-08T03:23:05.555Z,0.00
2022-10-08T03:24:05.533Z,0.00
2022-10-08T03:25:05.511Z,0.00
2022-10-08T03:26:05.491Z,0.00
2022-10-08T03:27:05.472Z,0.00
2022-10-08T03:28:05.502Z,0.00
2022-10-08T03:29:05.427Z,0.00
2022-10-08T03:30:05.402Z,0.00
2022-10-08T03:31:05.426Z,0.00
2022-10-08T03:32:05.367Z,0.00
2022-10-08T03:33:05.343Z,0.00
2022-10-08T03:34:05.322Z,0.00
2022-10-08T03:35:05.304Z,0.00
2022-10-08T03:36:05.281Z,0.00
2022-10-08T03:37:05.275Z,0.00
2022-10-08T03:38:05.241Z,0.00
2022-10-08T03:39:05.227Z,0.00
2022-10-08T03:40:05.194Z,0.00
2022-10-08T03:41:05.175Z,0.00
2022-10-08T03:42:05.155Z,0.00
2022-10-08T03:43:05.137Z,0.00
2022-10-08T03:44:05.111Z,0.00
2022-10-08T03:45:05.090Z,0.00
2022-10-08T03:46:05.139Z,0.00
2022-10-08T03:47:05.050Z,0.00
2022-10-08T03:48:05.051Z,0.00
2022-10-08T03:49:05.006Z,0.00
2022-10-08T03:50:04.986Z,0.00
2022-10-08T03:51:04.977Z,0.00
2022-10-08T03:52:04.943Z,0.00
2022-10-08T03:53:04.922Z,0.00
2022-10-08T03:54:04.903Z,0.00
2022-10-08T03:55:04.881Z,0.00
2022-10-08T03:56:04.860Z,0.00
2022-10-08T03:57:04.854Z,0.00
2022-10-08T03:58:04.813Z,0.00
2022-10-08T03:59:04.796Z,0.00
2022-10-08T04:00:04.775Z,0.00
2022-10-08T04:01:04.778Z,0.00
2022-10-08T04:02:04.735Z,0.00
2022-10-08T04:03:04.802Z,0.00
2022-10-08T04:04:04.686Z,0.00
2022-10-08T04:05:04.664Z,0.00
2022-10-08T04:06:04.645Z,0.00
2022-10-08T04:07:04.634Z,0.00
2022-10-08T04:08:04.604Z,0.00
2022-10-08T04:09:04.582Z,0.00
2022-10-08T04:10:04.557Z,0.00
2022-10-08T04:11:04.534Z,0.00
2022-10-08T04:12:04.518Z,0.00
2022-10-08T04:13:04.500Z,0.00
2022-10-08T04:14:04.476Z,0.00
2022-10-08T04:15:04.451Z,0.00
2022-10-08T04:16:04.487Z,0.00
2022-10-08T04:17:04.431Z,0.00
2022-10-08T04:18:04.383Z,0.00
2022-10-08T04:19:04.364Z,0.00
2022-10-08T04:20:04.360Z,0.00
2022-10-08T04:21:04.316Z,0.00
2022-10-08T04:22:04.300Z,0.00
2022-10-08T04:23:04.271Z,0.00
2022-10-08T04:24:04.260Z,0.00
2022-10-08T04:25:04.229Z,0.00
2022-10-08T04:26:04.205Z,0.00
2022-10-08T04:27:04.184Z,0.00
2022-10-08T04:28:04.236Z,0.00
2022-10-08T04:29:04.142Z,0.00
2022-10-08T04:30:04.129Z,0.00
2022-10-08T04:31:04.142Z,0.00
2022-10-08T04:32:04.083Z,0.00
2022-10-08T04:33:04.054Z,0.00
2022-10-08T04:34:04.052Z,0.00
2022-10-08T04:35:04.010Z,0.00
2022-10-08T04:36:03.983Z,0.00
2022-10-08T04:37:03.968Z,0.00
2022-10-08T04:38:03.941Z,0.00
2022-10-08T04:39:03.922Z,0.00
2022-10-08T04:40:03.906Z,0.00
2022-10-08T04:41:03.872Z,0.00
2022-10-08T04:42:03.972Z,0.00
2022-10-08T04:43:03.827Z,0.00
2022-10-08T04:44:03.807Z,0.00
2022-10-08T04:45:03.785Z,0.00
2022-10-08T04:46:03.827Z,0.00
2022-10-08T04:47:03.736Z,0.00
2022-10-08T04:48:03.720Z,0.00
2022-10-08T04:49:03.704Z,0.00
2022-10-08T04:50:03.673Z,0.00
2022-10-08T04:51:08.115Z,0.00
2022-10-08T04:52:03.626Z,0.00
2022-10-08T04:53:03.604Z,0.00
2022-10-08T04:54:03.577Z,0.00
2022-10-08T04:55:03.556Z,0.00
2022-10-08T04:56:03.542Z,0.00
2022-10-08T04:57:03.513Z,0.00
2022-10-08T04:58:03.506Z,0.00
2022-10-08T04:59:03.467Z,0.00
2022-10-08T05:00:18.111Z,0.00
2022-10-08T05:01:03.416Z,0.00
2022-10-08T05:02:03.465Z,0.00
2022-10-08T05:03:03.451Z,0.00
2022-10-08T05:04:03.381Z,0.00
2022-10-08T05:05:03.327Z,0.00
2022-10-08T05:06:03.306Z,0.00
2022-10-08T05:07:03.286Z,4.00
2022-10-08T05:08:03.263Z,4.00
2022-10-08T05:09:03.236Z,4.00
2022-10-08T05:10:03.216Z,4.00
2022-10-08T05:11:03.192Z,4.00
2022-10-08T05:12:03.171Z,8.00
2022-10-08T05:13:03.154Z,4.00
2022-10-08T05:14:03.119Z,8.00
2022-10-08T05:15:03.099Z,8.00
2022-10-08T05:16:03.168Z,12.00
2022-10-08T05:17:03.051Z,12.00
2022-10-08T05:18:03.047Z,16.00
2022-10-08T05:19:03.009Z,20.00
2022-10-08T05:20:02.984Z,24.00
2022-10-08T05:21:02.959Z,28.00
2022-10-08T05:22:02.935Z,32.00
2022-10-08T05:23:02.916Z,40.00
2022-10-08T05:24:02.917Z,44.00
2022-10-08T05:25:02.869Z,48.00
2022-10-08T05:26:02.839Z,60.00
2022-10-08T05:27:02.818Z,68.00
2022-10-08T05:28:02.915Z,76.00
2022-10-08T05:29:02.778Z,88.00
2022-10-08T05:30:02.772Z,100.00
2022-10-08T05:31:02.793Z,112.00
2022-10-08T05:32:02.709Z,124.00
2022-10-08T05:33:02.684Z,136.00
2022-10-08T05:34:02.663Z,152.00
2022-10-08T05:35:02.647Z,164.00
2022-10-08T05:36:02.613Z,180.00
2022-10-08T05:37:02.592Z,196.00
2022-10-08T05:38:02.563Z,216.00
2022-10-08T05:39:02.543Z,236.00
2022-10-08T05:40:02.519Z,252.00
2022-10-08T05:41:02.495Z,276.00
2022-10-08T05:42:02.472Z,300.00
2022-10-08T05:43:02.457Z,320.00
2022-10-08T05:44:02.433Z,348.00
2022-10-08T05:45:02.402Z,368.00
2022-10-08T05:46:02.492Z,392.00
2022-10-08T05:47:02.362Z,416.00
2022-10-08T05:48:02.328Z,448.00
2022-10-08T05:49:02.314Z,480.00
2022-10-08T05:50:02.294Z,512.00
2022-10-08T05:51:02.261Z,548.00
2022-10-08T05:52:02.241Z,584.00
2022-10-08T05:53:04.484Z,612.00
2022-10-08T05:54:02.192Z,644.00
2022-10-08T05:55:02.165Z,680.00
2022-10-08T05:56:02.147Z,716.00
2022-10-08T05:57:02.124Z,756.00
2022-10-08T05:58:02.100Z,780.00
2022-10-08T05:59:02.076Z,804.00
2022-10-08T06:00:02.052Z,824.00
2022-10-08T06:01:02.033Z,844.00
2022-10-08T06:02:02.006Z,860.00
2022-10-08T06:03:02.035Z,892.00
2022-10-08T06:04:07.791Z,932.00
2022-10-08T06:05:01.967Z,976.00
2022-10-08T06:06:01.907Z,1040.00
2022-10-08T06:07:01.885Z,1108.00
2022-10-08T06:08:01.867Z,1188.00
2022-10-08T06:09:01.886Z,1272.00
2022-10-08T06:10:01.816Z,1372.00
2022-10-08T06:11:01.792Z,1484.00
2022-10-08T06:12:01.776Z,1588.00
2022-10-08T06:13:01.749Z,1672.00
2022-10-08T06:14:01.728Z,1728.00
2022-10-08T06:15:01.703Z,1800.00
2022-10-08T06:16:01.721Z,1892.00
2022-10-08T06:17:01.649Z,1964.00
2022-10-08T06:18:01.633Z,2000.00
2022-10-08T06:19:01.604Z,2000.00
2022-10-08T06:20:01.582Z,1980.00
2022-10-08T06:21:01.556Z,1924.00
2022-10-08T06:22:01.535Z,1880.00
2022-10-08T06:23:01.510Z,1860.00
2022-10-08T06:24:01.489Z,1824.00
2022-10-08T06:25:01.465Z,1780.00
2022-10-08T06:26:01.444Z,1760.00
2022-10-08T06:27:01.421Z,1772.00
2022-10-08T06:28:01.463Z,1792.00
2022-10-08T06:29:01.387Z,1844.00
2022-10-08T06:30:01.348Z,1896.00
2022-10-08T06:31:01.349Z,1956.00
2022-10-08T06:32:01.314Z,2000.00
2022-10-08T06:33:01.284Z,2068.00
2022-10-08T06:34:01.257Z,2160.00
2022-10-08T06:35:01.231Z,2240.00
2022-10-08T06:36:01.212Z,2320.00
2022-10-08T06:37:01.184Z,2388.00
2022-10-08T06:38:01.161Z,2468.00
2022-10-08T06:39:01.136Z,2520.00
2022-10-08T06:40:01.115Z,2572.00
2022-10-08T06:41:01.094Z,2604.00
2022-10-08T06:42:01.071Z,2624.00
2022-10-08T06:43:01.045Z,2664.00
2022-10-08T06:44:01.022Z,2668.00
2022-10-08T06:45:02.368Z,2628.00
2022-10-08T06:46:00.976Z,2572.00
2022-10-08T06:47:00.979Z,2528.00
2022-10-08T06:48:00.931Z,2504.00
2022-10-08T06:49:00.909Z,2532.00
2022-10-08T06:50:01.100Z,2556.00
2022-10-08T06:51:00.859Z,2516.00
2022-10-08T06:52:00.838Z,2500.00
2022-10-08T06:53:00.814Z,2544.00
2022-10-08T06:54:07.010Z,2668.00
2022-10-08T06:55:00.770Z,2808.00
2022-10-08T06:56:00.743Z,2944.00
2022-10-08T06:57:00.719Z,3084.00
2022-10-08T06:58:00.696Z,3252.00
2022-10-08T06:59:00.675Z,3428.00
2022-10-08T07:00:00.692Z,3596.00
2022-10-08T07:01:00.693Z,3732.00
2022-10-08T07:02:00.682Z,3812.00
2022-10-08T07:03:00.589Z,3856.00
2022-10-08T07:04:00.563Z,3844.00
2022-10-08T07:05:00.538Z,3816.00
2022-10-08T07:06:00.515Z,3744.00
2022-10-08T07:07:00.491Z,3644.00
2022-10-08T07:08:00.468Z,3512.00
2022-10-08T07:09:00.450Z,3376.00
2022-10-08T07:10:00.473Z,3216.00
2022-10-08T07:11:00.407Z,3128.00
2022-10-08T07:12:00.376Z,3092.00
2022-10-08T07:13:00.353Z,3024.00
2022-10-08T07:14:00.340Z,2972.00
2022-10-08T07:15:00.310Z,2960.00
2022-10-08T07:16:00.346Z,2928.00
2022-10-08T07:17:00.271Z,2880.00
2022-10-08T07:18:00.244Z,2860.00
2022-10-08T07:19:00.214Z,2876.00
2022-10-08T07:20:00.316Z,2920.00
2022-10-08T07:21:00.173Z,3028.00
2022-10-08T07:22:01.508Z,3136.00
2022-10-08T07:23:00.125Z,3264.00
2022-10-08T07:24:00.102Z,3348.00
2022-10-08T07:25:00.096Z,3412.00
2022-10-08T07:26:00.053Z,3488.00
2022-10-08T07:27:00.033Z,3584.00
2022-10-08T07:28:00.120Z,3604.00
2022-10-08T07:28:59.991Z,3656.00
2022-10-08T07:29:59.969Z,3628.00
2022-10-08T07:30:59.958Z,3700.00
2022-10-08T07:31:59.959Z,3784.00
2022-10-08T07:32:59.900Z,3872.00
2022-10-08T07:33:59.878Z,4048.00
2022-10-08T07:35:00.158Z,4180.00
2022-10-08T07:35:59.833Z,4264.00
2022-10-08T07:36:59.839Z,4356.00
2022-10-08T07:37:59.789Z,4428.00
2022-10-08T07:38:59.768Z,3940.00
2022-10-08T07:39:59.747Z,4412.00
2022-10-08T07:40:59.725Z,3552.00
2022-10-08T07:41:59.731Z,3636.00
2022-10-08T07:42:59.685Z,4068.00
2022-10-08T07:43:59.705Z,4928.00
2022-10-08T07:44:59.636Z,5052.00
2022-10-08T07:45:59.707Z,5188.00
2022-10-08T07:46:59.593Z,5460.00
2022-10-08T07:47:59.573Z,5476.00
2022-10-08T07:48:59.584Z,5628.00
2022-10-08T07:49:59.525Z,5880.00
2022-10-08T07:50:59.509Z,6164.00
2022-10-08T07:51:59.483Z,6120.00
2022-10-08T07:52:59.470Z,6036.00
2022-10-08T07:54:02.592Z,6228.00
2022-10-08T07:54:59.429Z,6856.00
2022-10-08T07:55:59.408Z,6952.00
2022-10-08T07:56:59.387Z,7228.00
2022-10-08T07:57:59.368Z,7272.00
2022-10-08T07:58:59.361Z,7860.00
2022-10-08T07:59:59.326Z,7676.00
2022-10-08T08:00:59.420Z,8204.00
2022-10-08T08:01:59.331Z,9768.00
2022-10-08T08:02:59.270Z,10704.00
2022-10-08T08:03:59.251Z,10908.00
2022-10-08T08:04:59.237Z,10264.00
2022-10-08T08:05:59.217Z,9728.00
2022-10-08T08:06:59.194Z,7776.00
2022-10-08T08:07:59.193Z,5708.00
2022-10-08T08:08:59.161Z,5832.00
2022-10-08T08:09:59.142Z,5956.00
2022-10-08T08:10:59.123Z,9744.00
2022-10-08T08:11:59.104Z,9660.00
2022-10-08T08:12:59.090Z,9524.00
2022-10-08T08:13:59.069Z,9588.00
2022-10-08T08:14:59.053Z,8684.00
2022-10-08T08:15:59.255Z,8964.00
2022-10-08T08:16:59.130Z,8856.00
2022-10-08T08:17:58.997Z,8552.00
2022-10-08T08:18:59.014Z,9512.00
2022-10-08T08:19:58.993Z,10284.00
2022-10-08T08:20:58.947Z,11152.00
2022-10-08T08:21:58.923Z,10688.00
2022-10-08T08:22:58.910Z,10820.00
2022-10-08T08:23:58.893Z,11348.00
2022-10-08T08:24:58.878Z,10872.00
2022-10-08T08:25:58.858Z,9484.00
2022-10-08T08:26:58.844Z,10972.00
2022-10-08T08:27:58.823Z,12460.00
2022-10-08T08:28:58.807Z,11628.00
2022-10-08T08:29:58.805Z,10976.00
2022-10-08T08:30:58.776Z,11364.00
2022-10-08T08:31:58.791Z,17120.00
2022-10-08T08:32:58.744Z,16960.00
2022-10-08T08:33:58.726Z,16064.00
2022-10-08T08:34:58.709Z,17632.00
2022-10-08T08:35:58.693Z,17504.00
2022-10-08T08:36:58.672Z,17504.00
2022-10-08T08:37:58.653Z,17856.00
2022-10-08T08:38:58.641Z,18016.00
2022-10-08T08:39:58.624Z,20512.00
2022-10-08T08:40:58.607Z,19936.00
2022-10-08T08:41:58.584Z,21632.00
2022-10-08T08:42:58.573Z,22912.00
2022-10-08T08:43:58.551Z,23936.00
2022-10-08T08:44:58.539Z,23680.00
2022-10-08T08:45:58.538Z,24096.00
2022-10-08T08:46:58.499Z,22528.00
2022-10-08T08:47:58.481Z,22880.00
2022-10-08T08:48:58.468Z,22944.00
2022-10-08T08:49:58.448Z,24320.00
2022-10-08T08:50:58.431Z,23200.00
2022-10-08T08:51:58.417Z,26688.00
2022-10-08T08:52:58.398Z,28704.00
2022-10-08T08:53:58.378Z,30336.00
2022-10-08T08:54:58.365Z,28224.00
2022-10-08T08:55:58.347Z,23040.00
2022-10-08T08:56:58.328Z,27424.00
2022-10-08T08:57:58.312Z,33440.00
2022-10-08T08:58:58.300Z,34016.00
2022-10-08T08:59:58.277Z,36256.00
2022-10-08T09:00:58.347Z,37696.00
2022-10-08T09:01:58.249Z,38048.00
2022-10-08T09:02:58.234Z,35136.00
2022-10-08T09:03:58.214Z,33920.00
2022-10-08T09:04:58.270Z,23072.00
2022-10-08T09:05:58.176Z,28064.00
2022-10-08T09:06:58.159Z,37920.00
2022-10-08T09:07:58.144Z,37536.00
2022-10-08T09:08:58.129Z,30400.00
2022-10-08T09:09:58.107Z,27552.00
2022-10-08T09:10:58.104Z,34368.00
2022-10-08T09:11:58.078Z,39616.00
2022-10-08T09:12:58.057Z,39200.00
2022-10-08T09:13:58.057Z,36384.00
2022-10-08T09:14:58.022Z,39008.00
2022-10-08T09:15:58.009Z,27072.00
2022-10-08T09:16:58.051Z,38816.00
2022-10-08T09:17:57.977Z,38432.00
2022-10-08T09:18:57.959Z,38112.00
2022-10-08T09:19:57.936Z,36832.00
2022-10-08T09:20:57.926Z,37184.00
2022-10-08T09:21:57.908Z,38016.00
2022-10-08T09:22:57.892Z,38016.00
2022-10-08T09:23:57.873Z,37088.00
2022-10-08T09:24:57.856Z,37888.00
2022-10-08T09:25:57.842Z,37280.00
2022-10-08T09:26:57.828Z,37152.00
2022-10-08T09:27:57.809Z,36544.00
2022-10-08T09:28:57.790Z,37312.00
2022-10-08T09:29:57.801Z,37216.00
2022-10-08T09:31:00.370Z,38752.00
2022-10-08T09:31:57.742Z,40096.00
2022-10-08T09:32:57.728Z,40160.00
2022-10-08T09:33:57.709Z,39904.00
2022-10-08T09:34:57.691Z,39648.00
2022-10-08T09:35:57.676Z,41632.00
2022-10-08T09:36:57.666Z,41760.00
2022-10-08T09:37:59.880Z,42144.00
2022-10-08T09:38:57.630Z,42976.00
2022-10-08T09:39:57.615Z,43136.00
2022-10-08T09:40:57.598Z,45152.00
2022-10-08T09:41:57.599Z,48896.00
2022-10-08T09:42:57.563Z,53408.00
2022-10-08T09:43:57.551Z,55104.00
2022-10-08T09:44:57.534Z,33088.00
2022-10-08T09:45:57.631Z,22336.00
2022-10-08T09:46:57.507Z,22016.00
2022-10-08T09:47:57.499Z,19264.00
2022-10-08T09:48:57.476Z,16572.00
2022-10-08T09:49:57.474Z,14824.00
2022-10-08T09:50:57.462Z,12956.00
2022-10-08T09:51:57.450Z,11452.00
2022-10-08T09:52:57.430Z,10360.00
2022-10-08T09:53:57.407Z,9484.00
2022-10-08T09:54:57.392Z,8828.00
2022-10-08T09:55:57.379Z,8160.00
2022-10-08T09:56:57.395Z,7824.00
2022-10-08T09:57:57.349Z,7804.00
2022-10-08T09:58:57.334Z,7820.00
2022-10-08T09:59:57.327Z,7892.00
2022-10-08T10:00:57.364Z,8028.00
2022-10-08T10:01:57.314Z,8188.00
2022-10-08T10:02:57.271Z,8168.00
2022-10-08T10:03:57.315Z,8408.00
2022-10-08T10:04:57.236Z,9400.00
2022-10-08T10:05:57.226Z,10344.00
2022-10-08T10:06:57.207Z,10920.00
2022-10-08T10:07:57.184Z,11300.00
2022-10-08T10:08:57.169Z,12752.00
2022-10-08T10:09:57.163Z,14788.00
2022-10-08T10:10:57.137Z,16280.00
2022-10-08T10:11:57.120Z,16792.00
2022-10-08T10:12:57.102Z,17248.00
2022-10-08T10:13:57.088Z,16628.00
2022-10-08T10:14:57.076Z,16784.00
2022-10-08T10:15:57.053Z,17504.00
2022-10-08T10:16:57.071Z,17952.00
2022-10-08T10:17:57.037Z,19552.00
2022-10-08T10:18:57.000Z,19584.00
2022-10-08T10:19:56.999Z,21984.00
2022-10-08T10:20:56.972Z,20608.00
2022-10-08T10:21:56.954Z,20064.00
2022-10-08T10:22:56.936Z,20224.00
2022-10-08T10:23:56.922Z,20416.00
2022-10-08T10:24:56.909Z,19840.00
2022-10-08T10:25:57.993Z,17600.00
2022-10-08T10:26:56.893Z,16316.00
2022-10-08T10:27:56.863Z,17440.00
2022-10-08T10:28:56.851Z,16556.00
2022-10-08T10:29:56.821Z,12064.00
2022-10-08T10:30:56.864Z,9464.00
2022-10-08T10:31:56.791Z,9016.00
2022-10-08T10:32:56.773Z,11996.00
2022-10-08T10:33:56.759Z,14580.00
2022-10-08T10:34:56.744Z,15328.00
2022-10-08T10:35:56.728Z,12800.00
2022-10-08T10:36:56.712Z,11432.00
2022-10-08T10:37:56.694Z,15208.00
2022-10-08T10:38:56.680Z,16960.00
2022-10-08T10:39:56.659Z,14204.00
2022-10-08T10:40:56.644Z,13548.00
2022-10-08T10:41:56.628Z,15372.00
2022-10-08T10:42:56.609Z,18752.00
2022-10-08T10:43:56.595Z,30048.00
2022-10-08T10:44:56.574Z,19680.00
2022-10-08T10:45:56.583Z,15228.00
2022-10-08T10:46:56.542Z,13068.00
2022-10-08T10:47:56.529Z,14884.00
2022-10-08T10:48:56.514Z,16848.00
2022-10-08T10:49:56.491Z,19296.00
2022-10-08T10:50:56.476Z,34592.00
2022-10-08T10:51:56.459Z,22112.00
2022-10-08T10:52:56.441Z,28128.00
2022-10-08T10:53:56.428Z,20736.00
2022-10-08T10:54:56.426Z,26496.00
2022-10-08T10:55:56.396Z,35936.00
2022-10-08T10:56:56.380Z,25536.00
2022-10-08T10:57:56.381Z,31968.00
2022-10-08T10:58:56.345Z,21664.00
2022-10-08T10:59:56.326Z,23360.00
2022-10-08T11:00:56.317Z,15940.00
2022-10-08T11:01:56.359Z,21792.00
2022-10-08T11:02:56.340Z,20864.00
2022-10-08T11:03:56.276Z,21440.00
2022-10-08T11:05:01.373Z,21792.00
2022-10-08T11:05:56.239Z,25568.00
2022-10-08T11:06:56.227Z,16616.00
2022-10-08T11:07:56.213Z,13152.00
2022-10-08T11:08:56.193Z,11348.00
2022-10-08T11:09:56.180Z,10156.00
2022-10-08T11:10:56.168Z,8596.00
2022-10-08T11:11:56.149Z,7152.00
2022-10-08T11:12:56.131Z,6512.00
2022-10-08T11:13:56.118Z,7104.00
2022-10-08T11:14:56.106Z,7932.00
2022-10-08T11:15:56.158Z,8444.00
2022-10-08T11:16:56.067Z,9300.00
2022-10-08T11:17:56.052Z,10368.00
2022-10-08T11:18:56.042Z,11368.00
2022-10-08T11:19:56.018Z,12304.00
2022-10-08T11:20:56.006Z,12788.00
2022-10-08T11:21:55.986Z,11936.00
2022-10-08T11:22:55.969Z,11348.00
2022-10-08T11:23:55.957Z,11268.00
2022-10-08T11:24:55.947Z,11064.00
2022-10-08T11:26:20.444Z,11436.00
2022-10-08T11:26:55.905Z,12488.00
2022-10-08T11:27:55.884Z,15844.00
2022-10-08T11:28:55.870Z,20320.00
2022-10-08T11:29:55.849Z,22880.00
2022-10-08T11:30:55.861Z,21696.00
2022-10-08T11:31:55.818Z,20576.00
2022-10-08T11:32:55.804Z,20512.00
2022-10-08T11:33:55.786Z,18464.00
2022-10-08T11:34:55.773Z,16840.00
2022-10-08T11:35:55.750Z,16176.00
2022-10-08T11:36:55.741Z,15668.00
2022-10-08T11:37:55.731Z,14528.00
2022-10-08T11:38:55.702Z,13716.00
2022-10-08T11:39:55.689Z,14308.00
2022-10-08T11:40:55.670Z,15672.00
2022-10-08T11:41:55.654Z,16348.00
2022-10-08T11:42:55.797Z,18752.00
2022-10-08T11:43:55.628Z,22368.00
2022-10-08T11:44:55.609Z,22560.00
2022-10-08T11:45:55.638Z,20640.00
2022-10-08T11:46:55.572Z,19200.00
2022-10-08T11:47:55.552Z,16400.00
2022-10-08T11:48:55.553Z,15824.00
2022-10-08T11:49:55.526Z,15196.00
2022-10-08T11:50:55.507Z,14660.00
2022-10-08T11:51:55.489Z,15000.00
2022-10-08T11:52:55.500Z,15860.00
2022-10-08T11:53:55.473Z,16152.00
2022-10-08T11:54:56.106Z,14660.00
2022-10-08T11:55:55.432Z,13760.00
2022-10-08T11:56:55.416Z,12912.00
2022-10-08T11:58:07.597Z,12240.00
2022-10-08T11:58:55.387Z,12448.00
2022-10-08T11:59:55.370Z,12408.00
2022-10-08T12:00:55.352Z,12240.00
2022-10-08T12:01:55.332Z,12572.00
2022-10-08T12:02:55.375Z,12436.00
2022-10-08T12:03:55.333Z,12028.00
2022-10-08T12:04:55.281Z,11920.00
2022-10-08T12:05:55.276Z,11364.00
2022-10-08T12:06:55.249Z,10372.00
2022-10-08T12:07:55.243Z,9800.00
2022-10-08T12:08:55.227Z,10152.00
2022-10-08T12:09:55.201Z,11236.00
2022-10-08T12:10:55.186Z,11828.00
2022-10-08T12:11:55.176Z,11668.00
2022-10-08T12:12:55.151Z,10916.00
2022-10-08T12:13:55.134Z,10084.00
2022-10-08T12:14:55.122Z,9988.00
2022-10-08T12:15:55.167Z,10752.00
2022-10-08T12:16:55.085Z,12036.00
2022-10-08T12:17:55.072Z,12724.00
2022-10-08T12:18:55.050Z,12588.00
2022-10-08T12:19:55.034Z,12436.00
2022-10-08T12:20:55.028Z,13000.00
2022-10-08T12:21:55.000Z,14344.00
2022-10-08T12:22:54.985Z,15368.00
2022-10-08T12:23:54.971Z,15772.00
2022-10-08T12:24:54.952Z,17408.00
2022-10-08T12:25:54.934Z,17312.00
2022-10-08T12:26:54.915Z,16404.00
2022-10-08T12:27:54.895Z,15008.00
2022-10-08T12:28:54.884Z,13544.00